Time;durP1;ratioP1;P1;durP2;ratioP2;P2;SDS_P1;SDS_P2;PMS_P1;PMS_P2;Temp;Humidity;BMP_temperature;BMP_pressure;BME280_temperature;BME280_humidity;BME280_pressure;Samples;Min_cycle;Max_cycle;Signal;HPM_P1;HPM_P2
2022/04/04 00:02:03;;;;;;;10.13;8.08;;;;;;;3.96;96.64;99240.53;1734019;81;21362;-76
2022/04/04 00:05:08;;;;;;;9.55;7.58;;;;;;;3.96;96.66;99249.16;1730757;83;21207;-75
2022/04/04 00:08:17;;;;;;;8.85;7.85;;;;;;;3.96;96.70;99250.00;1714596;82;21246;-78
2022/04/04 00:11:22;;;;;;;10.53;8.18;;;;;;;3.95;96.83;99253.72;1715961;82;21160;-75
2022/04/04 00:14:27;;;;;;;9.05;7.80;;;;;;;3.96;96.98;99251.86;1715920;83;21751;-76
2022/04/04 00:17:33;;;;;;;11.90;8.23;;;;;;;3.97;97.06;99250.84;1715937;82;21187;-81
2022/04/04 00:20:39;;;;;;;11.48;8.73;;;;;;;3.96;97.15;99251.86;1714583;82;21185;-76
2022/04/04 00:23:45;;;;;;;10.18;8.90;;;;;;;3.95;97.22;99251.02;1716043;83;21170;-76
2022/04/04 00:26:51;;;;;;;11.18;9.45;;;;;;;3.97;97.33;99253.55;1714466;82;21218;-81
2022/04/04 00:29:57;;;;;;;9.88;8.38;;;;;;;3.97;97.45;99263.02;1715985;83;21206;-75
2022/04/04 00:33:03;;;;;;;12.35;9.33;;;;;;;3.97;97.71;99263.02;1715911;82;21215;-81
2022/04/04 00:36:02;;;;;;;10.00;7.97;;;;;;;3.96;98.09;99266.74;1716076;83;21171;-81
2022/04/04 00:38:54;;;;;;;12.53;9.28;;;;;;;3.95;98.39;99269.08;1716108;83;21170;-81
2022/04/04 00:41:59;;;;;;;12.50;10.00;;;;;;;3.95;98.53;99271.31;1715889;82;21776;-75
2022/04/04 00:45:04;;;;;;;14.23;10.60;;;;;;;3.95;98.61;99277.20;1715904;83;21235;-80
2022/04/04 00:48:09;;;;;;;12.35;10.25;;;;;;;3.93;98.68;99283.28;1715914;82;21187;-75
2022/04/04 00:51:15;;;;;;;14.15;10.72;;;;;;;3.90;98.82;99283.08;1715946;82;21175;-75
2022/04/04 00:54:22;;;;;;;15.50;10.95;;;;;;;3.89;98.96;99284.60;1715907;83;21253;-81
2022/04/04 00:57:28;;;;;;;16.35;11.50;;;;;;;3.89;99.21;99291.37;1715876;82;21237;-81
2022/04/04 01:00:33;;;;;;;16.73;10.20;;;;;;;3.89;99.37;99291.37;1716001;83;21179;-75
2022/04/04 01:03:32;;;;;;;13.98;10.60;;;;;;;3.89;99.44;99298.98;1715933;82;21203;-75
2022/04/04 01:06:37;;;;;;;13.43;10.35;;;;;;;3.87;99.42;99298.30;1722186;81;21187;-75
2022/04/04 01:09:43;;;;;;;18.32;11.93;;;;;;;3.85;99.50;99308.41;1732674;82;21170;-81
2022/04/04 01:13:01;;;;;;;14.40;12.23;;;;;;;3.83;99.50;99308.58;1732626;81;21744;-75
2022/04/04 01:16:07;;;;;;;14.60;10.88;;;;;;;3.81;99.49;99313.31;1734008;83;21214;-75
2022/04/04 01:19:13;;;;;;;12.50;9.53;;;;;;;3.79;99.60;99312.60;1734013;83;21202;-80
2022/04/04 01:22:20;;;;;;;16.10;11.73;;;;;;;3.78;99.66;99311.42;1734035;81;21199;-75
2022/04/04 01:25:38;;;;;;;18.65;12.10;;;;;;;3.75;99.65;99313.07;1734060;83;21163;-80
2022/04/04 01:28:45;;;;;;;13.00;10.35;;;;;;;3.70;99.65;99314.89;1734010;83;21183;-75
2022/04/04 01:31:51;;;;;;;15.58;11.30;;;;;;;3.67;99.77;99323.34;1734043;81;21211;-82
2022/04/04 01:34:57;;;;;;;13.20;10.93;;;;;;;3.66;99.79;99320.27;1733964;83;21203;-81
2022/04/04 01:38:03;;;;;;;14.73;10.48;;;;;;;3.64;99.77;99316.88;1734060;81;21752;-81
2022/04/04 01:41:08;;;;;;;14.47;11.20;;;;;;;3.62;99.83;99322.93;1734045;83;21163;-81
2022/04/04 01:44:14;;;;;;;15.32;10.45;;;;;;;3.59;99.98;99318.70;1733914;83;21203;-81
2022/04/04 01:47:20;;;;;;;15.38;9.28;;;;;;;3.59;100.00;99320.05;1733972;81;21207;-75
2022/04/04 01:50:25;;;;;;;12.70;9.55;;;;;;;3.56;100.00;99328.47;1734064;83;21199;-81
2022/04/04 01:53:32;;;;;;;13.30;10.88;;;;;;;3.55;100.00;99332.69;1733956;81;21211;-81
2022/04/04 01:56:41;;;;;;;12.30;9.75;;;;;;;3.50;100.00;99326.39;1733998;81;21238;-83
2022/04/04 01:59:47;;;;;;;12.47;10.30;;;;;;;3.49;100.00;99322.00;1733965;83;21192;-75
2022/04/04 02:02:52;;;;;;;13.22;9.93;;;;;;;3.48;100.00;99330.23;1734053;81;21238;-83
2022/04/04 02:05:59;;;;;;;11.22;8.68;;;;;;;3.47;100.00;99333.45;1734040;83;21162;-82
2022/04/04 02:09:05;;;;;;;12.85;9.63;;;;;;;3.48;100.00;99338.35;1732558;83;21187;-76
2022/04/04 02:12:11;;;;;;;13.25;9.65;;;;;;;3.46;100.00;99334.46;1733977;81;21209;-75
2022/04/04 02:15:17;;;;;;;9.60;8.40;;;;;;;3.42;100.00;99342.53;1733936;83;21219;-79
2022/04/04 02:18:23;;;;;;;12.00;9.35;;;;;;;3.39;100.00;99342.86;1733989;81;21211;-75
2022/04/04 02:21:28;;;;;;;11.25;9.65;;;;;;;3.36;100.00;99349.06;1733983;81;21161;-82
2022/04/04 02:24:35;;;;;;;11.90;9.55;;;;;;;3.36;100.00;99347.71;1733996;83;21151;-76
2022/04/04 02:27:42;;;;;;;10.82;8.28;;;;;;;3.34;100.00;99350.58;1733942;81;21214;-75
2022/04/04 02:30:49;;;;;;;12.47;8.23;;;;;;;3.29;99.34;99359.14;1733876;83;21193;-81
2022/04/04 02:33:55;;;;;;;14.25;8.30;;;;;;;3.26;98.74;99366.20;1734062;83;21745;-75
2022/04/04 02:37:00;;;;;;;10.00;8.53;;;;;;;3.21;98.25;99364.45;1733703;81;21195;-75
2022/04/04 02:40:05;;;;;;;11.33;8.65;;;;;;;3.16;98.00;99364.06;1733936;81;21179;-81
2022/04/04 02:43:11;;;;;;;10.03;8.25;;;;;;;3.11;97.76;99369.58;1734137;81;21207;-81
2022/04/04 02:46:17;;;;;;;9.83;7.95;;;;;;;3.04;97.59;99370.16;1733970;81;21178;-82
2022/04/04 02:49:24;;;;;;;10.78;8.53;;;;;;;2.97;97.46;99378.54;1734039;83;21167;-75
2022/04/04 02:52:30;;;;;;;9.73;8.18;;;;;;;2.90;97.64;99380.12;1734015;81;21230;-75
2022/04/04 02:59:01;;;;;;;9.68;8.38;;;;;;;2.76;97.68;99392.27;1734062;83;21476;-75
2022/04/04 03:02:07;;;;;;;8.53;6.95;;;;;;;2.67;97.83;99397.21;1734095;81;21238;-81
2022/04/04 03:05:14;;;;;;;8.85;7.72;;;;;;;2.63;97.93;99397.16;1734109;83;21629;-80
2022/04/04 03:08:20;;;;;;;9.13;7.12;;;;;;;2.59;98.18;99403.88;1733923;81;21210;-81
2022/04/04 03:11:25;;;;;;;9.90;7.03;;;;;;;2.59;98.42;99409.27;1734045;81;21179;-75
2022/04/04 03:14:25;;;;;;;6.10;5.30;;;;;;;2.59;98.53;99410.62;1734214;82;21171;-81
2022/04/04 03:17:31;;;;;;;8.08;6.47;;;;;;;2.58;98.53;99412.94;1733359;81;21234;-81
2022/04/04 03:20:37;;;;;;;9.48;7.08;;;;;;;2.56;98.48;99418.50;1734055;83;21823;-80
2022/04/04 03:23:44;;;;;;;7.50;6.22;;;;;;;2.56;98.44;99413.61;1734033;83;21219;-76
2022/04/04 03:26:50;;;;;;;7.75;6.03;;;;;;;2.54;98.25;99428.61;1733943;81;21194;-76
2022/04/04 03:29:56;;;;;;;7.58;6.50;;;;;;;2.52;98.34;99433.79;1734162;83;22078;-82
2022/04/04 03:33:03;;;;;;;8.05;6.20;;;;;;;2.50;98.44;99436.64;1732583;81;21206;-81
2022/04/04 03:36:10;;;;;;;9.28;6.60;;;;;;;2.51;98.55;99435.64;1734104;83;21199;-76
2022/04/04 03:39:16;;;;;;;6.47;5.78;;;;;;;2.53;98.36;99448.48;1734144;83;21163;-81
2022/04/04 03:42:21;;;;;;;7.30;5.03;;;;;;;2.54;98.45;99456.95;1734027;81;21215;-76
2022/04/04 03:45:26;;;;;;;6.47;4.65;;;;;;;2.52;97.92;99452.19;1734036;83;21202;-75
2022/04/04 03:48:31;;;;;;;5.72;4.75;;;;;;;2.48;97.65;99456.16;1734029;81;21222;-81
2022/04/04 03:51:37;;;;;;;7.22;4.85;;;;;;;2.45;97.34;99467.28;1733963;81;21206;-75
2022/04/04 03:54:43;;;;;;;7.85;6.00;;;;;;;2.40;96.91;99468.21;1734111;83;21202;-75
2022/04/04 03:57:48;;;;;;;8.50;5.87;;;;;;;2.36;97.07;99474.05;1733253;81;21214;-81
2022/04/04 04:00:54;;;;;;;9.40;6.60;;;;;;;2.28;97.14;99475.59;1733975;83;21232;-76
2022/04/04 04:04:01;;;;;;;10.85;7.37;;;;;;;2.25;97.27;99486.67;1734073;83;21163;-77
2022/04/04 04:07:10;;;;;;;9.95;6.67;;;;;;;2.24;97.33;99486.82;1733738;81;21218;-81
2022/04/04 04:10:15;;;;;;;10.63;6.92;;;;;;;2.22;97.36;99498.27;1733423;81;21206;-82
2022/04/04 04:13:21;;;;;;;8.43;5.87;;;;;;;2.21;97.37;99506.87;1734053;81;21210;-81
2022/04/04 04:16:28;;;;;;;7.92;6.35;;;;;;;2.20;97.81;99510.53;1733961;81;21247;-82
2022/04/04 04:23:14;;;;;;;9.90;6.97;;;;;;;2.22;98.50;99515.81;1733939;81;21756;-81
2022/04/04 04:26:21;;;;;;;9.03;6.10;;;;;;;2.19;97.55;99529.58;1733995;81;21199;-81
2022/04/04 04:29:27;;;;;;;9.40;5.55;;;;;;;2.16;97.55;99538.79;1734048;83;21206;-81
2022/04/04 04:32:33;;;;;;;7.87;5.80;;;;;;;2.15;97.50;99536.24;1733949;81;21190;-81
2022/04/04 04:35:39;;;;;;;10.32;6.25;;;;;;;2.11;96.84;99541.06;1734108;83;21239;-77
2022/04/04 04:38:44;;;;;;;7.92;6.28;;;;;;;2.06;96.12;99546.03;1734016;83;21195;-81
2022/04/04 04:41:50;;;;;;;9.28;6.08;;;;;;;2.04;95.84;99548.03;1732634;81;21218;-81
2022/04/04 04:44:56;;;;;;;8.65;6.50;;;;;;;2.03;95.49;99559.31;1734072;83;21760;-75
2022/04/04 04:48:02;;;;;;;7.83;5.15;;;;;;;2.04;95.68;99564.21;1733986;81;21188;-81
2022/04/04 04:51:08;;;;;;;9.63;6.90;;;;;;;2.08;96.10;99572.89;1734065;83;21164;-80
2022/04/04 04:54:14;;;;;;;10.68;6.90;;;;;;;2.13;96.07;99568.77;1733950;83;21207;-75
2022/04/04 04:57:26;;;;;;;11.35;7.58;;;;;;;2.21;95.17;99573.44;1841197;76;22231;-76
2022/04/04 05:00:34;;;;;;;10.13;6.92;;;;;;;2.19;94.81;99576.79;1785921;80;21149;-81
2022/04/04 05:03:41;;;;;;;10.25;7.90;;;;;;;2.18;94.48;99592.62;1786129;80;21160;-82
2022/04/04 05:06:49;;;;;;;11.10;8.50;;;;;;;2.17;94.53;99590.94;1785793;79;21188;-82
2022/04/04 05:09:54;;;;;;;11.10;8.13;;;;;;;2.18;94.42;99600.23;1785985;80;21180;-76
2022/04/04 05:12:59;;;;;;;10.15;8.03;;;;;;;2.19;94.02;99610.02;1785944;79;21777;-76
2022/04/04 05:16:09;;;;;;;10.15;8.03;;;;;;;2.24;93.61;99610.95;1784410;80;21237;-76
2022/04/04 05:19:17;;;;;;;10.73;8.17;;;;;;;2.26;93.07;99604.44;1786193;80;21185;-82
2022/04/04 05:22:22;;;;;;;9.43;7.40;;;;;;;2.25;92.87;99605.41;1785994;79;21220;-82
2022/04/04 05:25:27;;;;;;;11.53;8.13;;;;;;;2.25;92.76;99613.50;1785942;80;21153;-82
2022/04/04 05:28:34;;;;;;;10.03;7.50;;;;;;;2.26;93.04;99615.23;1785938;79;21229;-82
2022/04/04 05:31:39;;;;;;;10.05;8.40;;;;;;;2.33;92.68;99621.41;1785926;79;21173;-76
2022/04/04 05:34:44;;;;;;;13.22;8.60;;;;;;;2.37;91.98;99624.18;1786035;80;21145;-76
2022/04/04 05:37:54;;;;;;;11.97;9.33;;;;;;;2.48;92.05;99619.98;1785071;79;21196;-82
2022/04/04 05:40:57;;;;;;;11.43;8.55;;;;;;;2.56;90.97;99626.89;1785922;80;21181;-82
2022/04/04 05:44:04;;;;;;;11.55;8.50;;;;;;;2.62;90.78;99628.16;1785831;80;21149;-76
2022/04/04 05:47:11;;;;;;;13.62;8.83;;;;;;;2.69;90.46;99637.42;1748548;80;21229;-80
2022/04/04 05:50:16;;;;;;;9.43;7.67;;;;;;;2.71;89.35;99641.66;1785876;80;21789;-76
2022/04/04 05:53:21;;;;;;;10.03;7.15;;;;;;;2.85;89.18;99626.02;1773836;79;21188;-76
2022/04/04 05:56:26;;;;;;;11.20;6.60;;;;;;;2.98;87.12;99630.13;1779582;79;21786;-82
2022/04/04 05:59:33;;;;;;;8.78;6.62;;;;;;;3.04;85.95;99647.61;1778927;79;21208;-82
2022/04/04 06:02:38;;;;;;;9.30;6.37;;;;;;;3.11;86.40;99650.61;1774862;79;21180;-77
2022/04/04 06:05:45;;;;;;;7.72;6.50;;;;;;;3.24;87.29;99657.38;1763214;80;21405;-77
2022/04/04 06:08:50;;;;;;;8.23;6.22;;;;;;;3.39;86.96;99658.27;1777797;79;21172;-77
2022/04/04 06:11:56;;;;;;;8.28;5.92;;;;;;;3.41;84.88;99672.02;1770470;79;21782;-81
2022/04/04 06:15:04;;;;;;;8.58;6.17;;;;;;;3.35;84.15;99674.45;1775425;79;21216;-82
2022/04/04 06:18:10;;;;;;;6.97;5.70;;;;;;;3.25;83.46;99683.44;1778744;79;21165;-76
2022/04/04 06:21:16;;;;;;;8.90;6.22;;;;;;;3.13;82.97;99683.23;1713081;82;21158;-76
2022/04/04 06:24:22;;;;;;;8.35;6.53;;;;;;;2.95;82.31;99691.20;1722394;82;21187;-82
2022/04/04 06:27:28;;;;;;;8.28;6.67;;;;;;;2.79;82.79;99705.28;1711292;83;21162;-76
2022/04/04 06:30:34;;;;;;;9.70;7.60;;;;;;;2.71;84.07;99705.63;1731918;82;21175;-76
2022/04/04 06:33:39;;;;;;;9.00;7.78;;;;;;;2.70;85.08;99710.18;1729970;82;21133;-76
2022/04/04 06:36:45;;;;;;;10.80;7.67;;;;;;;2.75;84.56;99712.45;1719388;82;21205;-76
2022/04/04 06:39:50;;;;;;;13.50;7.55;;;;;;;2.79;86.03;99714.73;1717347;81;21714;-82
2022/04/04 06:42:57;;;;;;;9.35;7.30;;;;;;;2.84;85.50;99719.72;1728238;82;21686;-76
2022/04/04 06:46:02;;;;;;;9.28;8.18;;;;;;;2.81;84.82;99726.23;1715403;82;21219;-76
2022/04/04 06:49:10;;;;;;;10.40;8.10;;;;;;;2.77;85.12;99725.31;1714458;83;21173;-76
2022/04/04 06:52:16;;;;;;;10.50;7.85;;;;;;;2.75;86.01;99740.31;1724783;82;21675;-82
2022/04/04 06:55:23;;;;;;;12.13;8.63;;;;;;;2.72;85.56;99734.33;1740937;82;21161;-81
2022/04/04 06:58:29;;;;;;;8.93;7.20;;;;;;;2.67;85.68;99750.10;1725651;82;22934;-76
2022/04/04 07:01:36;;;;;;;11.00;8.30;;;;;;;2.69;87.16;99752.19;1723362;81;21904;-82
2022/04/04 07:04:42;;;;;;;8.95;7.65;;;;;;;2.76;86.37;99758.72;1721509;82;21162;-81
2022/04/04 07:07:47;;;;;;;10.98;7.90;;;;;;;2.87;86.80;99764.48;1718119;82;21762;-82
2022/04/04 07:10:53;;;;;;;9.23;7.47;;;;;;;2.97;86.07;99770.28;1722954;82;21150;-76
2022/04/04 07:14:00;;;;;;;8.73;6.85;;;;;;;3.01;84.52;99767.66;1721543;82;21181;-82
2022/04/04 07:17:07;;;;;;;9.45;7.60;;;;;;;2.98;83.37;99776.03;1721782;81;21212;-75
2022/04/04 07:20:14;;;;;;;13.88;7.65;;;;;;;2.92;82.84;99783.86;1726908;82;21161;-75
2022/04/04 07:23:20;;;;;;;11.88;7.78;;;;;;;2.85;82.47;99785.39;1729548;81;21659;-81
2022/04/04 07:26:26;;;;;;;11.12;8.43;;;;;;;2.77;82.90;99795.03;1729792;81;21197;-75
2022/04/04 07:29:31;;;;;;;8.83;6.40;;;;;;;2.77;83.72;99789.63;1724294;82;21165;-83
2022/04/04 07:32:37;;;;;;;11.48;7.40;;;;;;;2.86;83.53;99801.45;1723681;81;21735;-76
2022/04/04 07:35:43;;;;;;;8.55;6.92;;;;;;;3.02;82.92;99803.13;1722184;82;21644;-76
2022/04/04 07:38:51;;;;;;;6.97;6.28;;;;;;;3.22;83.20;99812.09;1724880;82;21152;-82
2022/04/04 07:41:59;;;;;;;8.60;6.08;;;;;;;3.50;82.45;99814.45;1725833;81;21762;-82
2022/04/04 07:45:05;;;;;;;7.40;5.92;;;;;;;3.84;78.72;99816.68;1714748;81;21145;-76
2022/04/04 07:48:11;;;;;;;8.25;5.78;;;;;;;4.04;77.54;99818.84;1706583;82;21249;-83
2022/04/04 07:51:17;;;;;;;7.72;5.85;;;;;;;4.06;75.59;99824.47;1694767;81;21722;-75
2022/04/04 07:54:23;;;;;;;8.20;4.83;;;;;;;4.10;75.85;99828.59;1702620;83;21754;-75
2022/04/04 07:57:29;;;;;;;8.10;5.83;;;;;;;4.10;73.18;99831.81;1723054;81;21157;-76
2022/04/04 08:00:37;;;;;;;6.78;5.30;;;;;;;4.00;73.81;99839.06;1732034;82;21204;-76
2022/04/04 08:03:44;;;;;;;7.22;5.42;;;;;;;3.94;72.24;99847.78;1716206;82;21722;-76
2022/04/04 08:06:44;;;;;;;8.13;4.95;;;;;;;3.96;72.38;99845.30;1728020;81;21169;-75
2022/04/04 08:09:51;;;;;;;7.45;5.25;;;;;;;4.02;71.84;99846.56;1723144;82;21161;-83
2022/04/04 08:12:51;;;;;;;7.42;5.03;;;;;;;4.15;70.76;99836.28;1714739;81;21245;-76
2022/04/04 08:16:00;;;;;;;7.62;4.87;;;;;;;4.30;71.42;99854.25;1710299;82;21201;-76
2022/04/04 08:19:06;;;;;;;7.83;6.03;;;;;;;4.48;71.48;99851.13;1732536;82;21201;-75
2022/04/04 08:22:11;;;;;;;9.23;5.47;;;;;;;4.59;71.08;99855.50;1726964;82;21805;-76
2022/04/04 08:25:18;;;;;;;5.70;5.00;;;;;;;4.65;71.23;99861.66;1728328;82;21146;-75
2022/04/04 08:28:23;;;;;;;6.37;4.97;;;;;;;4.68;70.48;99861.38;1716602;82;21190;-76
2022/04/04 08:31:29;;;;;;;7.75;6.12;;;;;;;4.64;69.71;99861.31;1729030;82;21163;-76
2022/04/04 08:34:36;;;;;;;7.33;5.67;;;;;;;4.52;68.66;99863.37;1725374;82;21177;-77
2022/04/04 08:37:35;;;;;;;11.63;6.55;;;;;;;4.40;70.50;99869.11;1707089;82;21162;-82
2022/04/04 08:40:42;;;;;;;7.08;5.17;;;;;;;4.34;70.90;99871.41;1720541;82;21745;-82
2022/04/04 08:43:52;;;;;;;8.20;5.22;;;;;;;4.37;71.84;99868.89;1728481;82;21128;-76
2022/04/04 08:46:57;;;;;;;9.38;6.78;;;;;;;4.46;70.79;99862.59;1729390;81;21185;-81
2022/04/04 08:50:04;;;;;;;8.48;5.67;;;;;;;4.54;69.05;99864.07;1731704;82;21187;-82
2022/04/04 08:53:09;;;;;;;7.20;5.42;;;;;;;4.52;66.70;99869.30;1727082;83;21778;-75
2022/04/04 08:56:15;;;;;;;8.13;5.83;;;;;;;4.39;69.48;99871.48;1733991;81;21173;-75
2022/04/04 08:59:22;;;;;;;8.53;5.90;;;;;;;4.24;70.22;99881.42;1730274;83;21237;-81
2022/04/04 09:02:27;;;;;;;8.08;5.45;;;;;;;4.16;69.48;99873.17;1723899;82;21185;-76
2022/04/04 09:05:32;;;;;;;7.67;5.62;;;;;;;4.21;69.88;99873.58;1723889;83;21202;-75
2022/04/04 09:08:40;;;;;;;10.18;5.90;;;;;;;4.34;69.70;99880.89;1719477;83;21233;-81
2022/04/04 09:11:47;;;;;;;9.13;4.70;;;;;;;4.53;70.02;99888.61;1724121;83;21209;-75
2022/04/04 09:14:58;;;;;;;7.83;5.42;;;;;;;4.70;70.44;99889.16;1697495;84;21193;-82
2022/04/04 09:18:03;;;;;;;11.40;5.75;;;;;;;4.75;69.69;99888.71;1694179;83;21595;-76
2022/04/04 09:21:08;;;;;;;7.90;5.47;;;;;;;4.64;68.79;99892.98;1695007;84;21190;-77
2022/04/04 09:24:13;;;;;;;6.83;5.05;;;;;;;4.56;68.81;99900.48;1721349;83;21151;-80
2022/04/04 09:27:24;;;;;;;7.97;5.25;;;;;;;4.54;68.31;99898.44;1721987;82;21813;-76
2022/04/04 09:30:30;;;;;;;7.92;5.17;;;;;;;4.62;69.03;99894.48;1719180;83;21185;-76
2022/04/04 09:33:48;;;;;;;8.88;5.72;;;;;;;4.75;66.93;99912.63;1721524;83;21186;-76
2022/04/04 09:36:56;;;;;;;5.10;4.45;;;;;;;4.88;67.02;99904.98;1719800;83;21202;-76
2022/04/04 09:40:17;;;;;;;7.65;4.80;;;;;;;5.05;66.71;99907.92;1723277;83;21158;-75
2022/04/04 09:43:23;;;;;;;7.25;4.47;;;;;;;5.23;64.13;99913.39;1723586;83;21158;-81
2022/04/04 09:46:28;;;;;;;5.20;4.40;;;;;;;5.42;64.95;99908.35;1724567;81;21139;-76
2022/04/04 09:49:34;;;;;;;7.78;4.67;;;;;;;5.73;64.38;99905.59;1721640;83;21181;-76
2022/04/04 09:52:39;;;;;;;6.08;3.80;;;;;;;6.11;62.27;99909.02;1697975;83;21842;-82
2022/04/04 09:55:48;;;;;;;6.75;4.50;;;;;;;6.29;59.04;99888.11;1752105;81;21162;-82
2022/04/04 09:58:55;;;;;;;9.63;4.40;;;;;;;6.38;61.12;99903.45;1740618;82;21169;-82
2022/04/04 10:02:00;;;;;;;4.28;3.75;;;;;;;6.40;58.14;99909.59;1742261;81;21856;-75
2022/04/04 10:05:07;;;;;;;5.60;3.83;;;;;;;6.48;57.25;99907.42;1754078;82;21161;-75
2022/04/04 10:08:13;;;;;;;5.67;4.25;;;;;;;6.70;57.00;99900.60;1758655;80;21208;-82
2022/04/04 10:11:19;;;;;;;7.00;4.40;;;;;;;6.79;56.14;99902.35;1754720;80;21156;-82
2022/04/04 10:14:23;;;;;;;5.67;3.92;;;;;;;6.86;55.82;99907.47;1754671;82;21161;-82
2022/04/04 10:17:29;;;;;;;5.80;4.33;;;;;;;6.80;55.05;99911.36;1759993;80;21184;-75
2022/04/04 10:20:34;;;;;;;6.05;4.10;;;;;;;6.68;55.31;99905.36;1771936;80;21169;-81
2022/04/04 10:23:39;;;;;;;5.58;4.03;;;;;;;6.62;53.34;99905.98;1747097;82;21160;-76
2022/04/04 10:26:46;;;;;;;7.10;4.37;;;;;;;6.66;52.54;99903.30;1717126;83;21204;-76
2022/04/04 10:29:51;;;;;;;4.78;4.00;;;;;;;6.69;52.67;99919.80;1746358;82;21168;-81
2022/04/04 10:33:00;;;;;;;4.90;3.50;;;;;;;6.58;51.90;99912.75;1732365;82;21156;-75
2022/04/04 10:36:18;;;;;;;5.90;3.65;;;;;;;6.53;53.27;99920.02;1745019;82;21792;-76
2022/04/04 10:39:23;;;;;;;4.78;3.75;;;;;;;6.60;53.31;99920.25;1728274;83;21158;-76
2022/04/04 10:42:43;;;;;;;8.10;3.80;;;;;;;6.70;53.63;99918.78;1743341;82;21543;-76
2022/04/04 10:46:05;;;;;;;7.62;3.90;;;;;;;6.76;53.06;99918.97;1701007;84;21173;-76
2022/04/04 10:49:12;;;;;;;3.70;3.33;;;;;;;6.77;52.24;99927.98;1707593;83;21181;-83
2022/04/04 10:52:18;;;;;;;4.70;3.42;;;;;;;6.72;51.25;99929.81;1694042;84;21234;-76
2022/04/04 10:55:48;;;;;;;7.65;3.50;;;;;;;6.70;51.48;99922.34;1747180;82;21216;-76
2022/04/04 10:58:52;;;;;;;5.40;3.72;;;;;;;6.78;51.91;99928.34;1729735;82;21177;-83
2022/04/04 11:02:06;;;;;;;5.62;3.30;;;;;;;6.81;50.13;99930.72;1746622;82;21209;-83
2022/04/04 11:08:42;;;;;;;4.65;3.45;;;;;;;6.95;50.12;99931.98;1733869;82;21244;-76
2022/04/04 11:12:14;;;;;;;5.08;3.35;;;;;;;7.10;50.09;99930.36;1734024;82;21240;-76
2022/04/04 11:15:27;;;;;;;4.47;3.35;;;;;;;7.14;50.38;99933.09;1734209;82;21161;-77
2022/04/04 11:18:32;;;;;;;5.62;3.55;;;;;;;7.13;48.82;99929.53;1734086;81;21153;-82
2022/04/04 11:21:49;;;;;;;4.42;3.45;;;;;;;7.12;49.32;99931.06;1733812;82;21181;-83
2022/04/04 11:25:04;;;;;;;4.10;3.00;;;;;;;7.27;49.77;99917.17;1734104;82;21778;-83
2022/04/04 11:28:10;;;;;;;5.62;3.83;;;;;;;7.57;49.24;99920.31;1734213;82;21209;-76
2022/04/04 11:31:19;;;;;;;4.53;3.37;;;;;;;7.77;49.01;99925.83;1734088;82;21519;-83
2022/04/04 11:34:27;;;;;;;5.05;3.20;;;;;;;7.87;48.58;99923.79;1734078;81;21177;-77
2022/04/04 11:37:36;;;;;;;4.62;3.20;;;;;;;7.91;47.75;99923.80;1734376;82;21201;-77
2022/04/04 11:40:45;;;;;;;5.67;3.45;;;;;;;7.94;48.79;99926.67;1734138;82;21161;-76
2022/04/04 11:43:57;;;;;;;5.72;2.83;;;;;;;7.98;46.84;99932.65;1734136;82;21798;-78
2022/04/04 11:47:13;;;;;;;5.08;3.08;;;;;;;7.87;46.34;99935.20;1732725;82;21680;-76
2022/04/04 11:50:19;;;;;;;4.65;3.42;;;;;;;7.64;46.17;99934.98;1770918;81;21138;-83
2022/04/04 11:53:27;;;;;;;4.33;3.62;;;;;;;7.47;45.27;99942.74;1731169;81;21750;-82
2022/04/04 11:56:32;;;;;;;5.47;2.90;;;;;;;7.36;45.03;99941.19;1770850;81;21205;-82
2022/04/04 11:59:37;;;;;;;4.97;3.55;;;;;;;7.25;45.33;99942.34;1729907;81;21385;-83
2022/04/04 12:02:44;;;;;;;6.72;3.22;;;;;;;7.20;45.88;99943.34;1758548;81;21573;-82
2022/04/04 12:05:51;;;;;;;3.50;2.87;;;;;;;7.20;46.03;99944.70;1766226;81;21247;-76
2022/04/04 12:09:00;;;;;;;3.95;3.00;;;;;;;7.20;45.32;99939.74;1768865;81;21161;-83
2022/04/04 12:12:19;;;;;;;4.22;2.75;;;;;;;7.23;45.15;99939.43;1767427;81;21753;-76
2022/04/04 12:15:36;;;;;;;6.85;3.12;;;;;;;7.25;44.72;99936.05;1768816;81;21138;-77
2022/04/04 12:18:42;;;;;;;5.83;3.10;;;;;;;7.20;45.67;99938.39;1769629;81;21189;-83
2022/04/04 12:21:47;;;;;;;5.47;3.27;;;;;;;7.13;45.83;99943.13;1769857;81;21181;-83
2022/04/04 12:24:56;;;;;;;4.50;2.75;;;;;;;7.12;46.43;99944.66;1770028;81;21762;-76
2022/04/04 12:28:08;;;;;;;4.42;2.95;;;;;;;7.17;45.91;99941.79;1770049;81;21758;-83
2022/04/04 12:31:34;;;;;;;4.90;3.22;;;;;;;7.27;46.33;99936.22;1768781;81;21209;-76
2022/04/04 12:34:39;;;;;;;4.50;2.80;;;;;;;7.39;44.87;99940.36;1770085;81;21188;-83
2022/04/04 12:37:47;;;;;;;6.47;3.30;;;;;;;7.47;44.73;99935.94;1770320;81;21201;-76
2022/04/04 12:40:52;;;;;;;4.20;2.90;;;;;;;7.53;43.93;99944.80;1770311;81;21201;-83
2022/04/04 12:44:07;;;;;;;5.83;3.50;;;;;;;7.59;44.34;99937.34;1733783;81;22061;-76
2022/04/04 12:47:11;;;;;;;7.22;3.17;;;;;;;7.67;44.01;99937.38;1765786;81;21208;-82
2022/04/04 12:50:21;;;;;;;6.22;3.98;;;;;;;7.78;42.63;99951.17;1766200;81;21164;-76
2022/04/04 12:53:27;;;;;;;5.58;3.42;;;;;;;7.83;43.02;99942.84;1766616;81;21204;-82
2022/04/04 12:56:27;;;;;;;5.87;3.45;;;;;;;7.94;43.39;99941.66;1766458;81;21192;-77
2022/04/04 12:59:32;;;;;;;5.55;3.50;;;;;;;7.98;43.32;99938.94;1767004;81;21729;-78
2022/04/04 13:02:39;;;;;;;5.87;3.27;;;;;;;8.02;44.28;99936.23;1766909;81;21750;-76
2022/04/04 13:05:49;;;;;;;4.83;3.67;;;;;;;8.00;44.02;99937.41;1766817;79;21216;-76
2022/04/04 13:09:03;;;;;;;6.20;4.03;;;;;;;7.83;44.03;99944.20;1752563;81;21718;-76
2022/04/04 13:12:10;;;;;;;6.30;3.47;;;;;;;7.62;45.18;99941.08;1766909;81;21770;-76
2022/04/04 13:15:15;;;;;;;3.90;3.33;;;;;;;7.47;44.43;99945.47;1766971;81;21148;-83
2022/04/04 13:18:20;;;;;;;6.30;3.27;;;;;;;7.33;45.16;99950.52;1767015;81;21778;-83
2022/04/04 13:21:26;;;;;;;7.37;3.37;;;;;;;7.23;45.10;99945.72;1770736;81;21216;-83
2022/04/04 13:24:33;;;;;;;7.92;3.83;;;;;;;7.09;45.41;99951.27;1771594;81;21216;-76
2022/04/04 13:27:40;;;;;;;6.22;3.45;;;;;;;6.94;45.88;99949.33;1771835;81;21794;-83
2022/04/04 13:30:45;;;;;;;4.75;3.65;;;;;;;6.83;45.83;99956.75;1771883;81;21696;-83
2022/04/04 13:33:51;;;;;;;8.58;4.35;;;;;;;6.71;45.95;99952.58;1771540;81;21181;-76
2022/04/04 13:36:56;;;;;;;4.70;3.45;;;;;;;6.59;46.53;99953.88;1771912;81;21193;-76
2022/04/04 13:40:02;;;;;;;4.03;3.52;;;;;;;6.55;46.97;99951.98;1771991;81;21629;-77
2022/04/04 13:43:07;;;;;;;5.33;3.55;;;;;;;6.54;47.59;99949.40;1771893;81;21185;-83
2022/04/04 13:46:13;;;;;;;5.15;4.17;;;;;;;6.53;47.09;99941.75;1770568;80;21165;-76
2022/04/04 13:49:18;;;;;;;4.67;3.50;;;;;;;6.57;46.72;99939.58;1771628;81;21268;-82
2022/04/04 13:52:26;;;;;;;8.73;3.70;;;;;;;6.69;46.40;99938.31;1771349;81;21204;-76
2022/04/04 13:55:32;;;;;;;4.03;3.58;;;;;;;6.78;45.86;99937.86;1771940;81;21148;-81
2022/04/04 13:58:38;;;;;;;4.55;3.20;;;;;;;6.86;46.70;99930.58;1770455;80;21173;-82
2022/04/04 14:01:44;;;;;;;4.78;3.15;;;;;;;6.91;46.59;99932.81;1770349;81;21185;-83
2022/04/04 14:04:51;;;;;;;4.70;3.22;;;;;;;6.89;46.93;99928.91;1770291;81;21225;-80
2022/04/04 14:07:57;;;;;;;6.45;4.30;;;;;;;6.81;45.64;99928.00;1777329;80;21220;-76
2022/04/04 14:11:07;;;;;;;5.60;3.20;;;;;;;6.67;45.77;99926.73;1780001;80;21145;-82
2022/04/04 14:14:12;;;;;;;6.33;3.98;;;;;;;6.50;46.22;99925.80;1779235;80;21161;-81
2022/04/04 14:17:21;;;;;;;5.40;3.50;;;;;;;6.39;47.71;99926.88;1778743;80;21220;-76
2022/04/04 14:20:26;;;;;;;4.90;3.55;;;;;;;6.29;47.51;99921.21;1779269;80;21193;-76
2022/04/04 14:23:36;;;;;;;5.15;3.70;;;;;;;6.19;47.02;99927.25;1778747;80;21177;-83
2022/04/04 14:26:43;;;;;;;8.00;4.30;;;;;;;6.10;47.84;99931.75;1779980;80;21216;-76
2022/04/04 14:29:48;;;;;;;6.22;3.77;;;;;;;6.07;48.43;99927.51;1779968;80;21196;-76
2022/04/04 14:32:54;;;;;;;6.05;3.33;;;;;;;6.09;48.12;99928.19;1779053;80;21809;-76
2022/04/04 14:36:01;;;;;;;5.70;4.03;;;;;;;6.15;47.51;99930.27;1779094;80;21192;-76
2022/04/04 14:39:07;;;;;;;7.28;3.90;;;;;;;6.16;47.45;99931.12;1780148;80;21154;-76
2022/04/04 14:42:14;;;;;;;7.28;4.17;;;;;;;6.11;47.45;99932.94;1780124;80;21212;-83
2022/04/04 14:45:19;;;;;;;6.40;4.08;;;;;;;6.04;48.21;99938.67;1780201;80;21178;-83
2022/04/04 14:48:24;;;;;;;5.42;3.62;;;;;;;5.94;48.73;99939.27;1780195;80;21216;-83
2022/04/04 14:51:34;;;;;;;7.05;3.75;;;;;;;5.84;48.45;99942.53;1780066;80;21177;-76
2022/04/04 14:54:41;;;;;;;6.35;3.27;;;;;;;5.75;48.44;99948.37;1779600;80;21165;-76
2022/04/04 14:57:46;;;;;;;4.35;3.22;;;;;;;5.69;48.85;99940.83;1779313;80;21766;-83